Time;durP1;ratioP1;P1;durP2;ratioP2;P2;SDS_P1;SDS_P2;PMS_P1;PMS_P2;Temp;Humidity;BMP_temperature;BMP_pressure;BME280_temperature;BME280_humidity;BME280_pressure;Samples;Min_cycle;Max_cycle;Signal;HPM_P1;HPM_P2
2023/01/27 00:02:25;;;;;;;20.07;9.83;;;0.50;99.90;;;;;;5007241;28;20202;-48
2023/01/27 00:04:52;;;;;;;20.90;10.03;;;0.40;99.90;;;;;;5012807;28;20200;-50
2023/01/27 00:07:23;;;;;;;17.97;10.67;;;0.40;99.90;;;;;;5012740;28;20210;-48
2023/01/27 00:09:50;;;;;;;20.37;10.47;;;0.40;99.90;;;;;;5006157;28;20291;-48
2023/01/27 00:15:08;;;;;;;20.57;10.30;;;0.30;99.90;;;;;;4993559;28;20214;-50
2023/01/27 00:17:35;;;;;;;21.30;11.53;;;0.30;99.90;;;;;;5001293;28;20204;-48
2023/01/27 00:20:03;;;;;;;20.23;11.03;;;0.30;99.90;;;;;;5012074;28;20267;-49
2023/01/27 00:25:16;;;;;;;23.63;10.60;;;0.40;99.90;;;;;;5001734;28;20250;-48
2023/01/27 00:27:44;;;;;;;18.60;10.23;;;0.40;99.90;;;;;;5006810;28;20203;-48
2023/01/27 00:30:12;;;;;;;18.73;10.67;;;0.40;99.90;;;;;;5011952;28;20259;-49
2023/01/27 00:35:24;;;;;;;20.97;10.73;;;0.50;99.90;;;;;;5004740;28;20296;-51
2023/01/27 00:37:52;;;;;;;22.17;10.87;;;0.50;99.90;;;;;;5011484;28;20244;-50
2023/01/27 00:40:19;;;;;;;17.83;9.33;;;0.50;99.90;;;;;;5010824;28;20228;-49
2023/01/27 00:42:46;;;;;;;19.83;10.17;;;0.50;99.90;;;;;;5030318;22;20287;-48
2023/01/27 00:47:58;;;;;;;18.03;9.90;;;0.40;99.90;;;;;;5003177;28;20346;-48
2023/01/27 00:50:25;;;;;;;22.30;11.60;;;0.30;99.90;;;;;;5005423;28;20224;-47
2023/01/27 00:52:53;;;;;;;16.97;9.67;;;0.40;99.90;;;;;;4993931;28;20645;-48
2023/01/27 00:55:20;;;;;;;16.40;9.00;;;0.40;99.90;;;;;;4989488;28;20229;-49
2023/01/27 00:57:47;;;;;;;18.03;10.03;;;0.40;99.90;;;;;;4990767;28;20254;-49
2023/01/27 01:00:15;;;;;;;16.00;9.87;;;0.40;99.90;;;;;;4985853;28;20203;-46
2023/01/27 01:02:42;;;;;;;19.10;9.80;;;0.40;99.90;;;;;;4986309;28;20228;-50
2023/01/27 01:05:10;;;;;;;20.07;9.97;;;0.40;99.90;;;;;;4986974;28;20205;-49
2023/01/27 01:07:37;;;;;;;18.80;9.87;;;0.40;99.90;;;;;;4986648;28;20679;-47
2023/01/27 01:10:06;;;;;;;15.63;9.33;;;0.40;99.90;;;;;;4990048;28;20224;-50
2023/01/27 01:12:33;;;;;;;16.93;9.30;;;0.40;99.90;;;;;;4992349;28;20228;-48
2023/01/27 01:15:00;;;;;;;15.47;8.57;;;0.40;99.90;;;;;;4985020;28;20254;-49
2023/01/27 01:17:27;;;;;;;17.33;10.57;;;0.50;99.90;;;;;;4991099;28;20207;-48
2023/01/27 01:19:54;;;;;;;15.83;9.57;;;0.50;99.90;;;;;;4990955;28;20248;-49
2023/01/27 01:22:24;;;;;;;14.80;8.70;;;0.50;99.90;;;;;;4990761;28;20785;-48
2023/01/27 01:24:51;;;;;;;14.23;8.97;;;0.40;99.90;;;;;;4989581;28;20208;-48
2023/01/27 01:27:20;;;;;;;17.37;9.27;;;0.30;99.90;;;;;;4990271;28;20205;-52
2023/01/27 01:29:47;;;;;;;17.90;9.73;;;0.30;99.90;;;;;;4988880;28;20296;-49
2023/01/27 01:32:14;;;;;;;17.93;8.97;;;0.40;99.90;;;;;;4991937;28;20220;-50
2023/01/27 01:34:41;;;;;;;17.37;8.10;;;0.40;99.90;;;;;;4990679;28;20691;-48
2023/01/27 01:37:08;;;;;;;21.27;9.37;;;0.40;99.90;;;;;;4991982;28;20618;-50
2023/01/27 01:39:35;;;;;;;19.63;10.27;;;0.40;99.90;;;;;;4992119;28;20202;-49
2023/01/27 01:42:02;;;;;;;12.50;8.17;;;0.30;99.90;;;;;;4989447;28;20300;-48
2023/01/27 01:44:32;;;;;;;15.80;9.50;;;0.30;99.90;;;;;;4982676;28;20208;-49
2023/01/27 01:46:59;;;;;;;14.53;8.70;;;0.30;99.90;;;;;;4984368;28;20201;-49
2023/01/27 01:49:30;;;;;;;15.20;9.27;;;0.40;99.90;;;;;;4991568;28;20856;-48
2023/01/27 01:52:01;;;;;;;14.27;8.60;;;0.30;99.90;;;;;;4991885;28;20224;-49
2023/01/27 01:54:32;;;;;;;18.47;10.23;;;0.30;99.90;;;;;;4991527;28;20204;-48
2023/01/27 01:57:07;;;;;;;16.80;8.57;;;0.40;99.90;;;;;;4984307;28;20213;-49
2023/01/27 01:59:40;;;;;;;18.33;9.20;;;0.40;99.90;;;;;;4987815;28;20274;-48
2023/01/27 02:02:10;;;;;;;13.53;7.73;;;0.40;99.90;;;;;;4992153;28;20604;-49
2023/01/27 02:04:42;;;;;;;18.60;9.33;;;0.50;99.90;;;;;;4983895;28;20209;-48
2023/01/27 02:07:19;;;;;;;17.00;9.00;;;0.40;99.90;;;;;;4991517;28;20255;-49
2023/01/27 02:09:46;;;;;;;14.57;8.40;;;0.40;99.90;;;;;;4985481;28;20233;-47
2023/01/27 02:12:13;;;;;;;14.90;8.63;;;0.40;99.90;;;;;;4985375;28;20230;-49
2023/01/27 02:14:42;;;;;;;15.00;10.07;;;0.40;99.90;;;;;;4987769;28;20209;-49
2023/01/27 02:17:11;;;;;;;17.47;8.67;;;0.40;99.90;;;;;;4983970;28;20213;-49
2023/01/27 02:19:47;;;;;;;13.07;8.83;;;0.30;99.90;;;;;;4991003;28;20193;-49
2023/01/27 02:22:20;;;;;;;15.83;9.93;;;0.30;99.90;;;;;;4980598;28;20326;-48
2023/01/27 02:24:51;;;;;;;19.50;9.13;;;0.30;99.90;;;;;;4990415;28;20208;-49
2023/01/27 02:27:20;;;;;;;18.47;10.43;;;0.30;99.90;;;;;;4988940;28;20251;-48
2023/01/27 02:29:47;;;;;;;13.67;8.30;;;0.30;99.90;;;;;;4987308;28;20227;-49
2023/01/27 02:32:24;;;;;;;13.43;8.47;;;0.30;99.90;;;;;;4994179;28;20686;-48
2023/01/27 02:34:52;;;;;;;14.33;7.77;;;0.30;99.90;;;;;;4994660;28;20205;-48
2023/01/27 02:37:23;;;;;;;18.27;9.60;;;0.30;99.90;;;;;;4994898;28;20638;-48
2023/01/27 02:39:51;;;;;;;14.60;8.83;;;0.30;99.90;;;;;;4994879;28;20203;-48
2023/01/27 02:42:20;;;;;;;14.17;8.73;;;0.20;99.90;;;;;;4991161;28;20319;-48
2023/01/27 02:44:47;;;;;;;12.97;8.47;;;0.20;99.90;;;;;;4993276;28;20609;-48
2023/01/27 02:47:14;;;;;;;15.23;9.27;;;0.20;99.90;;;;;;4990042;28;20271;-49
2023/01/27 02:49:41;;;;;;;14.67;8.33;;;0.30;99.90;;;;;;4994206;28;20250;-48
2023/01/27 02:52:08;;;;;;;15.50;9.27;;;0.20;99.90;;;;;;4994668;28;20228;-48
2023/01/27 02:54:35;;;;;;;17.03;10.50;;;0.20;99.90;;;;;;4986481;28;20209;-48
2023/01/27 02:57:02;;;;;;;16.23;8.37;;;0.20;99.90;;;;;;4991967;28;20201;-48
2023/01/27 02:59:31;;;;;;;16.47;10.77;;;0.20;99.90;;;;;;4992755;28;20206;-48
2023/01/27 03:01:58;;;;;;;17.70;9.90;;;0.20;99.90;;;;;;4993943;28;20707;-50
2023/01/27 03:04:25;;;;;;;16.50;10.03;;;0.30;99.90;;;;;;4994362;28;20208;-48
2023/01/27 03:06:52;;;;;;;21.23;10.70;;;0.40;99.90;;;;;;4992058;28;20270;-48
2023/01/27 03:09:19;;;;;;;20.70;10.10;;;0.40;99.90;;;;;;4994175;28;20196;-48
2023/01/27 03:20:00;;;;;;;16.70;9.53;;;0.40;99.90;;;;;;4994192;28;20327;-49
2023/01/27 03:22:27;;;;;;;17.43;9.73;;;0.50;99.90;;;;;;4987735;28;20231;-48
2023/01/27 03:24:54;;;;;;;17.10;9.20;;;0.40;99.90;;;;;;4993240;28;20714;-49
2023/01/27 03:27:21;;;;;;;19.33;10.40;;;0.30;99.90;;;;;;4991674;28;20221;-48
2023/01/27 03:29:56;;;;;;;16.30;10.40;;;0.20;99.90;;;;;;4993624;28;20674;-49
2023/01/27 03:32:25;;;;;;;16.73;9.47;;;0.20;99.90;;;;;;4990306;28;20226;-48
2023/01/27 03:34:52;;;;;;;15.67;9.50;;;0.10;99.90;;;;;;4988865;28;20278;-49
2023/01/27 03:48:22;;;;;;;20.17;9.97;;;0.20;99.90;;;;;;4993651;28;20692;-48
2023/01/27 03:50:52;;;;;;;18.63;9.93;;;0.10;99.90;;;;;;4993050;28;20220;-48
2023/01/27 03:53:19;;;;;;;19.80;9.67;;;0.10;99.90;;;;;;4987341;28;20200;-49
2023/01/27 03:55:46;;;;;;;17.47;9.00;;;0.10;99.90;;;;;;4984731;28;20263;-48
2023/01/27 03:58:20;;;;;;;14.97;8.17;;;0.00;99.90;;;;;;4990621;28;20202;-48
2023/01/27 04:00:51;;;;;;;14.67;8.63;;;0.00;99.90;;;;;;4992224;28;20704;-49
2023/01/27 04:08:49;;;;;;;14.67;8.80;;;-0.10;99.90;;;;;;4993096;28;20207;-48
2023/01/27 04:14:05;;;;;;;15.03;8.80;;;-0.10;99.90;;;;;;4981656;28;20319;-48
2023/01/27 04:16:35;;;;;;;15.07;8.70;;;-0.10;99.90;;;;;;4987992;28;20299;-48
2023/01/27 04:19:03;;;;;;;12.73;8.73;;;-0.10;99.90;;;;;;4993058;28;20295;-48
2023/01/27 04:21:30;;;;;;;13.13;8.57;;;-0.10;99.90;;;;;;4992503;28;20217;-48
2023/01/27 04:23:57;;;;;;;15.10;8.47;;;-0.10;99.90;;;;;;5006052;28;20248;-49
2023/01/27 04:26:24;;;;;;;15.77;8.73;;;-0.10;99.90;;;;;;5002977;28;20205;-48
2023/01/27 04:28:52;;;;;;;14.43;8.50;;;-0.20;99.90;;;;;;5002092;28;20213;-49
2023/01/27 04:31:19;;;;;;;13.97;8.33;;;-0.20;99.90;;;;;;4990985;28;20756;-48
2023/01/27 04:33:47;;;;;;;11.70;7.80;;;-0.20;99.90;;;;;;4987705;28;20568;-49
2023/01/27 04:36:14;;;;;;;12.07;7.70;;;-0.10;99.90;;;;;;4991994;28;20231;-48
2023/01/27 04:38:41;;;;;;;15.13;7.60;;;-0.20;99.90;;;;;;4991354;28;20707;-49
2023/01/27 04:41:08;;;;;;;13.57;7.50;;;-0.20;99.90;;;;;;4992031;28;20749;-48
2023/01/27 04:43:36;;;;;;;13.83;7.43;;;-0.20;99.90;;;;;;4992811;28;20217;-48
2023/01/27 04:46:03;;;;;;;13.17;8.37;;;-0.20;99.90;;;;;;4990454;28;20207;-48
2023/01/27 04:48:30;;;;;;;12.03;7.07;;;-0.20;99.90;;;;;;4991806;28;20293;-48
2023/01/27 04:50:58;;;;;;;10.20;7.03;;;-0.20;99.90;;;;;;4987158;28;20241;-48
2023/01/27 04:53:25;;;;;;;11.53;7.73;;;-0.30;99.90;;;;;;4973126;28;20268;-49
2023/01/27 04:55:52;;;;;;;13.53;7.87;;;-0.30;99.90;;;;;;4976939;28;20249;-48
2023/01/27 04:58:19;;;;;;;11.10;7.07;;;-0.40;99.90;;;;;;4992078;28;20251;-48
2023/01/27 05:00:46;;;;;;;12.50;6.93;;;-0.40;99.90;;;;;;4990982;28;21004;-49
2023/01/27 05:03:13;;;;;;;16.60;8.20;;;-0.40;99.90;;;;;;4986410;28;20628;-48
2023/01/27 05:05:41;;;;;;;11.83;6.63;;;-0.50;99.90;;;;;;4991694;28;20672;-48
2023/01/27 05:08:10;;;;;;;14.97;6.93;;;-0.50;99.90;;;;;;4989868;28;20199;-48
2023/01/27 05:10:37;;;;;;;10.47;6.53;;;-0.60;99.90;;;;;;4992004;28;20220;-49
2023/01/27 05:13:04;;;;;;;14.27;7.37;;;-0.70;99.90;;;;;;4992401;28;20222;-49
2023/01/27 05:15:32;;;;;;;13.67;7.73;;;-0.70;99.90;;;;;;4991034;28;20293;-48
2023/01/27 05:17:59;;;;;;;14.13;7.10;;;-0.70;99.90;;;;;;4988626;28;20202;-49
2023/01/27 05:20:26;;;;;;;12.30;6.83;;;-0.70;99.90;;;;;;4991359;28;20207;-48
2023/01/27 05:23:33;;;;;;;9.83;6.43;;;-0.80;99.90;;;;;;4991934;28;20280;-49
2023/01/27 05:25:43;;;;;;;14.00;7.20;;;-0.80;99.90;;;;;;4982560;28;20235;-48
2023/01/27 05:28:10;;;;;;;12.37;7.70;;;-0.80;99.90;;;;;;4991856;28;20246;-48
2023/01/27 05:30:37;;;;;;;11.67;6.60;;;-0.80;99.90;;;;;;4990976;28;20226;-48
2023/01/27 05:33:04;;;;;;;15.23;6.60;;;-0.80;99.90;;;;;;4979033;28;20223;-49
2023/01/27 05:35:33;;;;;;;12.13;6.97;;;-0.80;99.90;;;;;;4988299;28;20677;-48
2023/01/27 05:38:00;;;;;;;14.23;8.60;;;-0.80;99.90;;;;;;4990698;28;20196;-48
2023/01/27 05:40:27;;;;;;;14.67;8.53;;;-0.80;99.90;;;;;;4991618;28;20214;-48
2023/01/27 05:42:55;;;;;;;11.97;7.40;;;-0.70;99.90;;;;;;4978769;28;20299;-48
2023/01/27 05:45:22;;;;;;;9.87;7.20;;;-0.70;99.90;;;;;;4986003;28;20299;-47
2023/01/27 05:47:50;;;;;;;14.43;8.77;;;-0.70;99.90;;;;;;4983314;28;20207;-49
2023/01/27 05:50:18;;;;;;;17.30;9.23;;;-0.70;99.90;;;;;;4991515;28;20285;-49
2023/01/27 05:52:45;;;;;;;14.47;9.30;;;-0.70;99.90;;;;;;4991488;28;20311;-49
2023/01/27 05:55:12;;;;;;;16.27;9.03;;;-0.70;99.90;;;;;;4991505;28;20553;-48
2023/01/27 05:57:39;;;;;;;19.23;9.53;;;-0.70;99.90;;;;;;4991524;28;20690;-49
2023/01/27 06:00:09;;;;;;;23.13;11.20;;;-0.70;99.90;;;;;;4989695;28;20208;-49
2023/01/27 06:02:36;;;;;;;19.13;10.07;;;-0.60;99.90;;;;;;4984314;28;20710;-49
2023/01/27 06:05:03;;;;;;;20.30;10.87;;;-0.60;99.90;;;;;;4993679;28;20205;-49
2023/01/27 06:07:30;;;;;;;17.37;9.87;;;-0.50;99.90;;;;;;4995563;28;20199;-48
2023/01/27 06:09:57;;;;;;;15.90;9.20;;;-0.50;99.90;;;;;;4993375;28;20302;-48
2023/01/27 06:12:24;;;;;;;23.00;10.83;;;-0.50;99.90;;;;;;4975565;28;20292;-49
2023/01/27 06:14:51;;;;;;;18.43;11.07;;;-0.40;99.90;;;;;;4975748;28;20752;-49
2023/01/27 06:17:22;;;;;;;16.30;8.63;;;-0.40;99.90;;;;;;4991620;28;20267;-49
2023/01/27 06:19:49;;;;;;;15.53;9.87;;;-0.40;99.90;;;;;;4994143;28;20287;-50
2023/01/27 06:22:16;;;;;;;15.97;9.00;;;-0.40;99.90;;;;;;4994939;28;20216;-48
2023/01/27 06:24:43;;;;;;;14.67;9.00;;;-0.50;99.90;;;;;;4993287;28;20214;-50
2023/01/27 06:27:10;;;;;;;15.40;9.07;;;-0.50;99.90;;;;;;4991638;28;20204;-48
2023/01/27 06:29:37;;;;;;;17.10;8.67;;;-0.40;99.90;;;;;;4987848;28;20263;-48
2023/01/27 06:32:04;;;;;;;18.03;8.93;;;-0.30;99.90;;;;;;4984024;28;20300;-49
2023/01/27 06:34:33;;;;;;;16.87;9.13;;;-0.40;99.90;;;;;;4987446;28;20205;-52
2023/01/27 06:37:00;;;;;;;14.70;9.40;;;-0.40;99.90;;;;;;4991548;28;20229;-49
2023/01/27 06:39:27;;;;;;;15.07;8.60;;;-0.40;99.90;;;;;;4989744;28;20255;-48
2023/01/27 06:41:54;;;;;;;15.57;8.40;;;-0.40;99.90;;;;;;5001329;23;20246;-48
2023/01/27 06:44:21;;;;;;;13.70;8.20;;;-0.40;99.90;;;;;;4975790;28;20201;-48
2023/01/27 06:46:47;;;;;;;13.90;8.40;;;-0.40;99.90;;;;;;4964707;28;20210;-48
2023/01/27 06:49:15;;;;;;;16.20;9.73;;;-0.40;99.90;;;;;;4976186;28;20197;-48
2023/01/27 06:51:43;;;;;;;13.60;7.90;;;-0.50;99.90;;;;;;4973205;28;20226;-48
2023/01/27 06:54:10;;;;;;;13.00;8.53;;;-0.50;99.90;;;;;;4973860;28;20214;-49
2023/01/27 06:56:37;;;;;;;16.70;9.57;;;-0.40;99.90;;;;;;4975230;28;20201;-49
2023/01/27 06:59:04;;;;;;;13.10;7.50;;;-0.40;99.90;;;;;;4974408;28;20208;-48
2023/01/27 07:01:31;;;;;;;15.63;10.20;;;-0.40;99.90;;;;;;4970189;28;20836;-48
2023/01/27 07:03:58;;;;;;;12.87;8.93;;;-0.30;99.90;;;;;;4975809;28;20692;-49
2023/01/27 07:06:25;;;;;;;13.30;8.20;;;-0.20;99.90;;;;;;4973054;28;20633;-49
2023/01/27 07:08:53;;;;;;;13.67;8.33;;;-0.20;99.90;;;;;;4975446;28;20209;-48
2023/01/27 07:11:21;;;;;;;17.93;8.33;;;-0.30;99.90;;;;;;4974038;28;20230;-48
2023/01/27 07:13:48;;;;;;;16.87;9.07;;;-0.30;99.90;;;;;;4975497;28;20693;-48
2023/01/27 07:16:15;;;;;;;17.67;9.40;;;-0.30;99.90;;;;;;4975781;28;20204;-48
2023/01/27 07:18:43;;;;;;;17.73;8.83;;;-0.30;99.90;;;;;;4975718;28;20204;-48
2023/01/27 07:21:10;;;;;;;15.17;8.70;;;-0.30;99.90;;;;;;4969982;28;20192;-48
2023/01/27 07:23:37;;;;;;;12.33;7.97;;;-0.30;99.90;;;;;;4972405;28;20288;-48
2023/01/27 07:26:05;;;;;;;20.93;8.13;;;-0.30;99.90;;;;;;4974772;28;20207;-48
2023/01/27 07:28:32;;;;;;;17.67;9.90;;;-0.30;99.90;;;;;;4975513;28;20635;-49
2023/01/27 07:31:01;;;;;;;15.73;7.87;;;-0.30;99.90;;;;;;4972561;28;20253;-49
2023/01/27 07:33:28;;;;;;;15.87;8.37;;;-0.20;99.90;;;;;;4974719;28;20223;-49
2023/01/27 07:35:55;;;;;;;12.57;8.57;;;-0.30;99.90;;;;;;4975131;28;20282;-49
2023/01/27 07:38:22;;;;;;;20.80;9.07;;;-0.30;99.90;;;;;;4973200;28;20206;-48
2023/01/27 07:40:49;;;;;;;13.37;8.37;;;-0.20;99.90;;;;;;4968676;28;20204;-48
2023/01/27 07:43:18;;;;;;;18.03;9.40;;;-0.20;99.90;;;;;;4974852;28;20228;-48
2023/01/27 07:45:47;;;;;;;13.47;8.33;;;-0.20;99.90;;;;;;4974876;28;20204;-48
2023/01/27 07:48:15;;;;;;;21.23;9.43;;;-0.10;99.90;;;;;;4971790;28;20203;-48
2023/01/27 07:50:42;;;;;;;20.60;10.47;;;-0.10;99.90;;;;;;4971837;28;20220;-48
2023/01/27 07:53:10;;;;;;;20.63;9.53;;;0.00;99.90;;;;;;4960887;28;20772;-48
2023/01/27 07:55:37;;;;;;;16.27;8.73;;;0.00;99.90;;;;;;4971972;28;20202;-49
2023/01/27 07:58:05;;;;;;;19.00;10.67;;;0.00;99.90;;;;;;4974558;28;20263;-48
2023/01/27 08:00:33;;;;;;;17.97;9.93;;;0.00;99.90;;;;;;4972883;28;20671;-49
2023/01/27 08:03:02;;;;;;;14.37;9.17;;;0.00;99.90;;;;;;4974516;28;20289;-48
2023/01/27 08:05:32;;;;;;;20.83;9.00;;;0.20;99.90;;;;;;4973338;28;20216;-48
2023/01/27 08:08:02;;;;;;;16.60;9.98;;;0.40;99.90;;;;;;4973825;28;20868;-48
2023/01/27 08:10:30;;;;;;;18.57;9.83;;;0.70;99.90;;;;;;4966356;28;20215;-49
2023/01/27 08:12:57;;;;;;;13.40;8.83;;;0.80;99.90;;;;;;4970830;28;20229;-49
2023/01/27 08:15:24;;;;;;;17.07;9.53;;;1.00;99.90;;;;;;4974251;28;20743;-48
2023/01/27 08:17:55;;;;;;;14.40;8.77;;;1.20;99.90;;;;;;4974826;28;20205;-49
2023/01/27 08:20:23;;;;;;;20.47;9.43;;;1.40;99.90;;;;;;4974477;28;20205;-49
2023/01/27 08:22:50;;;;;;;15.57;7.67;;;1.70;99.90;;;;;;4973737;28;20221;-48
2023/01/27 08:25:17;;;;;;;15.70;8.50;;;1.70;99.90;;;;;;4974700;28;20207;-49
2023/01/27 08:27:44;;;;;;;15.33;8.20;;;1.70;99.90;;;;;;4969071;28;20268;-48
2023/01/27 08:30:11;;;;;;;13.83;8.30;;;1.60;99.90;;;;;;4974057;28;20260;-49
2023/01/27 08:32:39;;;;;;;17.17;7.90;;;1.60;99.90;;;;;;4974116;28;20234;-48
2023/01/27 08:35:08;;;;;;;10.83;7.53;;;1.60;99.90;;;;;;4974253;28;20207;-47
2023/01/27 08:37:34;;;;;;;14.23;8.73;;;1.60;99.90;;;;;;4973986;28;20209;-48
2023/01/27 08:40:02;;;;;;;13.20;8.07;;;1.80;99.90;;;;;;4973753;28;20268;-48
2023/01/27 08:42:29;;;;;;;11.60;7.93;;;1.80;99.90;;;;;;4970926;28;20239;-49
2023/01/27 08:44:55;;;;;;;12.57;7.57;;;2.00;99.90;;;;;;4974019;28;20615;-49
2023/01/27 08:47:22;;;;;;;11.20;7.17;;;1.90;99.90;;;;;;4973799;28;20209;-48
2023/01/27 08:49:49;;;;;;;13.30;8.10;;;2.00;99.90;;;;;;4973971;28;20272;-48
2023/01/27 08:52:22;;;;;;;13.67;8.43;;;2.10;99.90;;;;;;4973798;28;20302;-48
2023/01/27 08:54:49;;;;;;;14.07;8.27;;;2.50;99.90;;;;;;4973885;28;20213;-49
2023/01/27 08:57:16;;;;;;;12.43;8.00;;;2.80;99.90;;;;;;4973687;28;20673;-49
2023/01/27 08:59:44;;;;;;;12.43;8.60;;;3.10;99.90;;;;;;4968572;28;20269;-48
2023/01/27 09:02:13;;;;;;;12.63;8.63;;;3.40;99.90;;;;;;4973614;28;20240;-49
2023/01/27 09:04:43;;;;;;;15.43;7.70;;;3.70;99.90;;;;;;4973981;28;20213;-49
2023/01/27 09:07:10;;;;;;;14.00;7.83;;;3.60;99.90;;;;;;4974242;28;20699;-49
2023/01/27 09:09:38;;;;;;;15.13;9.03;;;3.70;99.90;;;;;;4972333;28;20672;-49
2023/01/27 09:12:05;;;;;;;17.70;9.30;;;3.90;99.90;;;;;;4973809;28;20669;-49
2023/01/27 09:14:32;;;;;;;17.90;11.63;;;4.40;99.90;;;;;;4970050;28;20525;-48
2023/01/27 09:16:59;;;;;;;16.17;10.68;;;4.60;99.90;;;;;;4964870;28;20441;-49
2023/01/27 09:19:26;;;;;;;13.43;9.67;;;4.60;99.90;;;;;;4970441;28;20284;-48
2023/01/27 09:21:53;;;;;;;14.33;10.40;;;4.50;99.90;;;;;;4967889;28;20218;-48
2023/01/27 09:24:20;;;;;;;16.13;9.97;;;4.20;99.90;;;;;;4968381;28;20205;-48
2023/01/27 09:26:49;;;;;;;16.77;9.33;;;4.10;99.90;;;;;;4971897;28;20218;-48
2023/01/27 09:29:16;;;;;;;13.27;9.13;;;4.00;99.90;;;;;;4972931;28;20285;-48
2023/01/27 09:31:43;;;;;;;16.33;10.07;;;3.90;99.90;;;;;;4972836;28;20321;-48
2023/01/27 09:34:10;;;;;;;14.50;9.03;;;3.60;99.90;;;;;;4971007;28;20205;-49
2023/01/27 09:36:41;;;;;;;15.67;9.10;;;3.30;99.90;;;;;;4969902;28;20202;-48
2023/01/27 09:39:11;;;;;;;12.50;7.70;;;3.20;99.90;;;;;;4972613;28;20202;-48
2023/01/27 09:42:04;;;;;;;15.30;8.67;;;3.10;99.90;;;;;;4972709;28;20236;-48
2023/01/27 09:45:13;;;;;;;13.77;8.60;;;3.10;99.90;;;;;;4973044;28;20269;-48
2023/01/27 09:47:57;;;;;;;15.83;8.27;;;3.10;99.90;;;;;;4948799;28;20208;-48
2023/01/27 09:50:39;;;;;;;16.50;10.40;;;3.20;99.90;;;;;;4966632;28;20209;-49
2023/01/27 09:53:34;;;;;;;15.27;9.03;;;3.20;99.90;;;;;;4965962;28;20661;-49
2023/01/27 09:56:05;;;;;;;17.50;9.53;;;3.00;99.90;;;;;;4972721;28;20346;-49
2023/01/27 09:58:44;;;;;;;15.00;8.47;;;2.90;99.90;;;;;;4974292;28;20220;-48
2023/01/27 10:01:20;;;;;;;12.00;8.77;;;2.90;99.90;;;;;;4964556;28;20691;-49
2023/01/27 10:04:06;;;;;;;12.97;7.83;;;2.70;99.90;;;;;;4971453;28;20201;-49
2023/01/27 10:06:48;;;;;;;12.27;7.20;;;2.60;99.90;;;;;;4972678;28;20260;-49
2023/01/27 10:09:46;;;;;;;10.67;7.77;;;2.60;99.90;;;;;;4969274;28;20739;-48
2023/01/27 10:12:34;;;;;;;11.10;7.97;;;2.60;99.90;;;;;;4967192;28;21026;-48
2023/01/27 10:15:11;;;;;;;12.13;7.47;;;2.50;99.90;;;;;;4954694;28;20212;-49
2023/01/27 10:17:48;;;;;;;10.47;7.30;;;2.50;99.90;;;;;;4955338;28;20213;-48
2023/01/27 10:20:27;;;;;;;15.53;7.93;;;2.50;99.90;;;;;;4970156;28;20206;-48
2023/01/27 10:23:08;;;;;;;16.80;8.10;;;2.60;99.90;;;;;;4972130;28;20634;-48
2023/01/27 10:25:49;;;;;;;13.57;6.70;;;2.60;99.90;;;;;;4970448;28;20289;-48
2023/01/27 10:28:22;;;;;;;9.23;6.00;;;2.50;99.90;;;;;;4972595;28;20205;-48
2023/01/27 10:30:59;;;;;;;11.10;6.97;;;2.60;99.90;;;;;;4975721;28;20204;-48
2023/01/27 10:33:38;;;;;;;11.20;7.60;;;2.60;99.90;;;;;;4991663;28;20236;-47
2023/01/27 10:36:14;;;;;;;13.80;9.33;;;2.60;99.90;;;;;;4992134;28;20293;-48
2023/01/27 10:38:46;;;;;;;16.20;9.63;;;2.40;99.90;;;;;;4978304;28;20270;-49
2023/01/27 10:41:25;;;;;;;16.03;9.03;;;2.40;99.90;;;;;;4967735;28;20550;-48
2023/01/27 10:44:10;;;;;;;11.70;7.83;;;2.50;99.90;;;;;;4964318;28;20311;-47
2023/01/27 10:46:48;;;;;;;36.33;13.70;;;2.40;99.90;;;;;;4974875;28;20205;-48
2023/01/27 10:49:22;;;;;;;11.70;7.10;;;2.50;99.90;;;;;;4966374;28;20202;-48
2023/01/27 10:51:54;;;;;;;14.27;8.63;;;2.40;99.90;;;;;;4975809;28;20225;-48
2023/01/27 10:54:26;;;;;;;12.70;8.17;;;2.40;99.90;;;;;;4973616;28;20207;-48
2023/01/27 10:56:58;;;;;;;7.57;4.90;;;2.50;99.90;;;;;;4975157;28;20269;-48
2023/01/27 10:59:35;;;;;;;11.67;7.40;;;2.40;99.90;;;;;;4973077;28;20237;-48
2023/01/27 11:02:14;;;;;;;8.17;5.83;;;2.50;99.90;;;;;;4973917;28;20225;-48
2023/01/27 11:04:44;;;;;;;9.57;5.87;;;2.50;99.90;;;;;;4966650;28;20222;-48
2023/01/27 11:07:19;;;;;;;7.65;6.38;;;2.40;99.90;;;;;;4965254;28;20466;-48
2023/01/27 11:09:54;;;;;;;6.00;5.23;;;2.40;99.90;;;;;;4975299;28;20293;-49
2023/01/27 11:12:29;;;;;;;10.17;6.47;;;2.30;99.90;;;;;;4975076;28;20233;-49
2023/01/27 11:14:57;;;;;;;9.93;5.73;;;2.30;99.90;;;;;;4969772;28;20301;-48
2023/01/27 11:17:31;;;;;;;7.77;5.60;;;2.40;99.90;;;;;;4975572;28;20227;-48
2023/01/27 11:20:06;;;;;;;10.00;6.47;;;2.40;99.90;;;;;;4975452;28;20212;-48
2023/01/27 11:22:40;;;;;;;12.00;7.73;;;2.30;99.90;;;;;;4971498;28;20241;-48
2023/01/27 11:25:23;;;;;;;6.80;5.00;;;2.20;99.90;;;;;;4968870;28;20207;-47
2023/01/27 11:28:02;;;;;;;6.27;4.63;;;2.00;99.90;;;;;;4971577;28;20202;-49
2023/01/27 11:30:36;;;;;;;8.80;5.83;;;1.90;99.90;;;;;;4971374;28;20198;-49
2023/01/27 11:33:11;;;;;;;9.80;5.67;;;1.90;99.90;;;;;;4956233;28;20228;-48
2023/01/27 11:35:38;;;;;;;6.27;4.67;;;1.80;99.90;;;;;;4971199;28;20211;-48
2023/01/27 11:38:10;;;;;;;5.50;3.63;;;1.80;99.90;;;;;;4972080;28;20212;-47
2023/01/27 11:40:40;;;;;;;8.20;4.57;;;1.90;99.90;;;;;;4978842;28;20209;-48
2023/01/27 11:43:07;;;;;;;6.30;4.07;;;2.00;99.90;;;;;;4992883;28;20233;-49
2023/01/27 11:45:36;;;;;;;5.70;3.93;;;2.00;99.90;;;;;;4985050;28;20722;-48
2023/01/27 11:48:09;;;;;;;8.93;5.57;;;2.10;99.90;;;;;;4974648;28;20210;-46
2023/01/27 11:50:37;;;;;;;6.03;4.57;;;2.20;99.90;;;;;;4969763;28;20197;-48
2023/01/27 11:53:12;;;;;;;6.97;5.33;;;2.20;99.90;;;;;;4974599;28;20213;-48
2023/01/27 11:55:43;;;;;;;4.90;4.20;;;2.30;99.90;;;;;;4971734;28;20216;-47
2023/01/27 11:58:20;;;;;;;6.30;3.77;;;2.30;99.90;;;;;;4967348;28;20214;-47
2023/01/27 12:00:52;;;;;;;5.80;4.00;;;1.90;99.90;;;;;;4974153;28;20218;-48
2023/01/27 12:03:27;;;;;;;6.50;4.93;;;1.90;99.90;;;;;;4963653;28;20220;-48
2023/01/27 12:05:56;;;;;;;6.27;3.80;;;1.90;99.90;;;;;;4974004;28;20207;-48
2023/01/27 12:08:42;;;;;;;3.07;2.73;;;2.00;99.90;;;;;;4974412;28;20775;-48
2023/01/27 12:11:24;;;;;;;3.90;2.50;;;2.10;99.90;;;;;;4974665;28;20205;-48
2023/01/27 12:13:54;;;;;;;6.23;3.63;;;2.10;99.90;;;;;;4961929;28;20234;-48
2023/01/27 12:16:22;;;;;;;4.17;3.67;;;2.10;99.90;;;;;;4955455;29;20768;-48
2023/01/27 12:18:59;;;;;;;2.87;2.33;;;2.10;99.90;;;;;;4958275;28;20261;-48
2023/01/27 12:21:37;;;;;;;5.87;3.13;;;2.20;99.90;;;;;;4974290;28;20781;-49
2023/01/27 12:24:07;;;;;;;4.60;2.50;;;2.30;99.90;;;;;;4974162;28;20700;-47
2023/01/27 12:26:38;;;;;;;3.07;2.53;;;2.20;99.90;;;;;;4974239;28;20203;-47
2023/01/27 12:29:07;;;;;;;5.77;3.40;;;2.20;99.90;;;;;;4974497;28;20224;-48
2023/01/27 12:31:46;;;;;;;3.77;3.00;;;2.10;99.90;;;;;;4956439;28;20214;-47
2023/01/27 12:34:31;;;;;;;7.10;3.83;;;2.10;99.90;;;;;;4974013;28;20763;-48
2023/01/27 12:36:59;;;;;;;5.00;2.80;;;1.90;99.90;;;;;;4974449;28;20212;-48
2023/01/27 12:39:42;;;;;;;7.20;3.90;;;1.90;99.90;;;;;;4973894;28;20211;-48
2023/01/27 12:42:33;;;;;;;4.57;3.10;;;1.90;99.90;;;;;;4973955;28;20237;-48
2023/01/27 12:45:00;;;;;;;4.90;3.33;;;2.00;99.90;;;;;;4971486;28;20210;-48
2023/01/27 12:47:30;;;;;;;5.57;3.03;;;2.00;99.90;;;;;;5020827;23;20786;-49
2023/01/27 12:50:20;;;;;;;4.07;2.83;;;2.00;99.90;;;;;;5008026;28;20227;-49
2023/01/27 12:52:53;;;;;;;5.57;2.50;;;1.90;99.90;;;;;;5009376;28;20286;-49
2023/01/27 12:55:29;;;;;;;7.33;3.50;;;1.90;99.90;;;;;;5012362;28;20280;-50
2023/01/27 12:57:56;;;;;;;6.40;2.73;;;1.90;99.90;;;;;;5012411;28;20219;-49
2023/01/27 13:00:24;;;;;;;4.40;3.03;;;1.90;99.90;;;;;;5007768;28;20640;-49
2023/01/27 13:02:53;;;;;;;3.93;1.90;;;1.90;99.90;;;;;;5011508;28;20286;-49
2023/01/27 13:05:21;;;;;;;3.97;2.70;;;1.80;99.90;;;;;;4995561;28;20219;-50
2023/01/27 13:07:53;;;;;;;3.53;2.73;;;1.90;99.90;;;;;;4992573;28;20228;-51
2023/01/27 13:10:22;;;;;;;5.47;2.60;;;1.80;99.90;;;;;;4992809;28;20215;-49
2023/01/27 13:12:51;;;;;;;2.67;1.87;;;1.90;99.90;;;;;;5012182;28;20254;-49
2023/01/27 13:15:20;;;;;;;3.47;2.90;;;1.90;99.90;;;;;;5012042;28;20201;-46
2023/01/27 13:17:48;;;;;;;5.43;3.07;;;1.80;99.90;;;;;;5009568;28;20222;-47
2023/01/27 13:20:20;;;;;;;3.97;2.43;;;1.80;99.90;;;;;;5010871;28;20252;-46
2023/01/27 13:22:54;;;;;;;4.27;3.17;;;1.80;99.90;;;;;;4992571;28;20221;-46
2023/01/27 13:25:24;;;;;;;4.40;3.13;;;1.80;99.90;;;;;;4998526;28;20662;-46
2023/01/27 13:27:55;;;;;;;3.60;2.90;;;1.90;99.90;;;;;;5008401;28;20229;-47
2023/01/27 13:30:27;;;;;;;8.80;3.80;;;1.90;99.90;;;;;;5011792;28;20640;-47
2023/01/27 13:33:00;;;;;;;5.93;3.10;;;1.90;99.90;;;;;;5007995;28;20219;-48
2023/01/27 13:35:34;;;;;;;4.97;3.20;;;1.90;99.90;;;;;;5001879;28;20207;-47
2023/01/27 13:38:10;;;;;;;5.13;3.20;;;1.80;99.90;;;;;;5002196;28;20206;-47
2023/01/27 13:40:43;;;;;;;10.27;4.07;;;1.70;99.90;;;;;;5001842;28;20674;-47